createdAt,value
2022-10-05T00:00:39.472Z,0
2022-10-05T00:01:39.443Z,0
2022-10-05T00:02:38.928Z,0
2022-10-05T00:03:39.708Z,0
2022-10-05T00:04:39.786Z,0
2022-10-05T00:05:39.592Z,0
2022-10-05T00:06:39.117Z,0
2022-10-05T00:07:39.363Z,0
2022-10-05T00:08:38.836Z,0
2022-10-05T00:09:39.074Z,0
2022-10-05T00:10:39.067Z,0
2022-10-05T00:11:39.331Z,0
2022-10-05T00:12:39.303Z,0
2022-10-05T00:13:38.773Z,0
2022-10-05T00:14:39.528Z,0
2022-10-05T00:15:39.254Z,0
2022-10-05T00:16:39.419Z,0
2022-10-05T00:17:38.973Z,0
2022-10-05T00:18:39.216Z,0
2022-10-05T00:19:39.510Z,0
2022-10-05T00:20:39.496Z,0
2022-10-05T00:21:39.237Z,0
2022-10-05T00:22:39.153Z,0
2022-10-05T00:23:38.881Z,0
2022-10-05T00:24:38.871Z,0
2022-10-05T00:25:38.858Z,0
2022-10-05T00:26:39.109Z,0
2022-10-05T00:27:39.217Z,0
2022-10-05T00:28:39.589Z,0
2022-10-05T00:29:38.804Z,0
2022-10-05T00:30:39.309Z,0
2022-10-05T00:31:39.165Z,0
2022-10-05T00:32:38.779Z,0
2022-10-05T00:33:38.841Z,0
2022-10-05T00:34:38.747Z,0
2022-10-05T00:35:39.027Z,0
2022-10-05T00:36:39.009Z,0
2022-10-05T00:37:38.695Z,0
2022-10-05T00:38:38.686Z,0
2022-10-05T00:39:39.181Z,0
2022-10-05T00:40:38.656Z,0
2022-10-05T00:41:38.889Z,0
2022-10-05T00:42:39.149Z,0
2022-10-05T00:43:38.873Z,0
2022-10-05T00:44:38.603Z,0
2022-10-05T00:45:38.859Z,0
2022-10-05T00:46:39.096Z,0
2022-10-05T00:47:38.814Z,0
2022-10-05T00:48:38.556Z,0
2022-10-05T00:49:39.039Z,0
2022-10-05T00:50:38.773Z,0
2022-10-05T00:51:38.804Z,0
2022-10-05T00:52:38.887Z,0
2022-10-05T00:53:38.989Z,0
2022-10-05T00:54:39.257Z,0
2022-10-05T00:55:38.968Z,0
2022-10-05T00:56:39.212Z,0
2022-10-05T00:57:39.191Z,0
2022-10-05T00:58:39.224Z,0
2022-10-05T00:59:39.169Z,0
2022-10-05T01:00:39.163Z,0
2022-10-05T01:01:39.561Z,0
2022-10-05T01:02:44.085Z,0
2022-10-05T01:03:38.854Z,0
2022-10-05T01:04:39.103Z,0
2022-10-05T01:05:39.086Z,0
2022-10-05T01:06:39.073Z,0
2022-10-05T01:07:38.922Z,0
2022-10-05T01:08:39.355Z,0
2022-10-05T01:09:39.293Z,0
2022-10-05T01:10:39.270Z,0
2022-10-05T01:11:39.265Z,0
2022-10-05T01:12:38.996Z,0
2022-10-05T01:13:38.981Z,0
2022-10-05T01:14:39.221Z,0
2022-10-05T01:15:38.972Z,0
2022-10-05T01:16:39.197Z,0
2022-10-05T01:17:38.413Z,0
2022-10-05T01:18:38.397Z,0
2022-10-05T01:19:38.895Z,0
2022-10-05T01:20:38.881Z,0
2022-10-05T01:21:39.340Z,0
2022-10-05T01:22:38.858Z,0
2022-10-05T01:23:38.896Z,0
2022-10-05T01:24:38.892Z,0
2022-10-05T01:25:38.824Z,0
2022-10-05T01:26:38.540Z,0
2022-10-05T01:27:38.790Z,0
2022-10-05T01:28:39.096Z,0
2022-10-05T01:29:38.511Z,0
2022-10-05T01:30:38.501Z,0
2022-10-05T01:31:38.752Z,0
2022-10-05T01:32:38.458Z,0
2022-10-05T01:33:38.971Z,0
2022-10-05T01:35:10.529Z,0
2022-10-05T01:35:38.435Z,0
2022-10-05T01:36:38.412Z,0
2022-10-05T01:37:38.658Z,0
2022-10-05T01:38:38.635Z,0
2022-10-05T01:39:38.934Z,0
2022-10-05T01:40:38.673Z,0
2022-10-05T01:41:38.341Z,0
2022-10-05T01:42:38.323Z,0
2022-10-05T01:43:38.564Z,0
2022-10-05T01:44:38.304Z,0
2022-10-05T01:45:39.085Z,0
2022-10-05T01:46:38.272Z,0
2022-10-05T01:47:38.779Z,0
2022-10-05T01:48:38.501Z,0
2022-10-05T01:49:38.768Z,0
2022-10-05T01:50:38.494Z,0
2022-10-05T01:51:38.206Z,0
2022-10-05T01:52:38.448Z,0
2022-10-05T01:53:38.435Z,0
2022-10-05T01:54:38.417Z,0
2022-10-05T01:55:38.454Z,0
2022-10-05T01:56:38.435Z,0
2022-10-05T01:57:38.122Z,0
2022-10-05T01:58:38.102Z,0
2022-10-05T01:59:38.346Z,0
2022-10-05T02:00:38.336Z,0
2022-10-05T02:01:38.844Z,0
2022-10-05T02:02:38.447Z,0
2022-10-05T02:03:38.036Z,0
2022-10-05T02:05:08.005Z,0
2022-10-05T02:05:37.768Z,0
2022-10-05T02:06:38.253Z,0
2022-10-05T02:07:38.239Z,0
2022-10-05T02:08:37.713Z,0
2022-10-05T02:09:37.954Z,0
2022-10-05T02:10:37.946Z,0
2022-10-05T02:11:38.260Z,0
2022-10-05T02:12:38.474Z,0
2022-10-05T02:13:38.418Z,0
2022-10-05T02:14:38.258Z,0
2022-10-05T02:15:38.146Z,0
2022-10-05T02:16:38.142Z,0
2022-10-05T02:17:37.848Z,0
2022-10-05T02:18:38.087Z,0
2022-10-05T02:19:38.328Z,0
2022-10-05T02:20:38.105Z,0
2022-10-05T02:21:38.055Z,0
2022-10-05T02:22:37.786Z,0
2022-10-05T02:23:37.502Z,0
2022-10-05T02:24:38.270Z,0
2022-10-05T02:25:37.988Z,0
2022-10-05T02:26:37.985Z,0
2022-10-05T02:27:37.780Z,0
2022-10-05T02:28:38.664Z,0
2022-10-05T02:29:37.684Z,0
2022-10-05T02:30:37.922Z,0
2022-10-05T02:31:38.727Z,0
2022-10-05T02:32:37.897Z,0
2022-10-05T02:33:37.630Z,0
2022-10-05T02:34:37.612Z,0
2022-10-05T02:35:37.593Z,0
2022-10-05T02:36:37.590Z,0
2022-10-05T02:37:37.836Z,0
2022-10-05T02:38:37.814Z,0
2022-10-05T02:39:37.796Z,0
2022-10-05T02:40:38.037Z,0
2022-10-05T02:41:37.510Z,0
2022-10-05T02:42:37.501Z,0
2022-10-05T02:43:38.043Z,0
2022-10-05T02:44:38.047Z,0
2022-10-05T02:45:37.768Z,0
2022-10-05T02:46:37.712Z,0
2022-10-05T02:47:37.684Z,0
2022-10-05T02:48:37.675Z,0
2022-10-05T02:49:37.913Z,0
2022-10-05T02:50:37.394Z,0
2022-10-05T02:51:37.886Z,0
2022-10-05T02:52:37.362Z,0
2022-10-05T02:53:37.668Z,0
2022-10-05T02:54:37.594Z,0
2022-10-05T02:55:37.606Z,0
2022-10-05T02:56:37.852Z,0
2022-10-05T02:57:37.548Z,0
2022-10-05T02:58:37.284Z,0
2022-10-05T02:59:37.575Z,0
2022-10-05T03:00:37.815Z,0
2022-10-05T03:01:38.297Z,0
2022-10-05T03:02:37.840Z,0
2022-10-05T03:03:37.592Z,0
2022-10-05T03:04:37.460Z,0
2022-10-05T03:05:37.705Z,0
2022-10-05T03:06:37.177Z,0
2022-10-05T03:07:37.420Z,0
2022-10-05T03:08:37.393Z,0
2022-10-05T03:09:37.643Z,0
2022-10-05T03:10:36.853Z,0
2022-10-05T03:11:37.621Z,0
2022-10-05T03:12:37.086Z,0
2022-10-05T03:13:37.336Z,0
2022-10-05T03:14:37.309Z,0
2022-10-05T03:15:37.397Z,0
2022-10-05T03:16:37.470Z,0
2022-10-05T03:17:37.011Z,0
2022-10-05T03:18:37.998Z,0
2022-10-05T03:19:37.246Z,0
2022-10-05T03:20:37.486Z,0
2022-10-05T03:21:36.961Z,0
2022-10-05T03:22:36.942Z,0
2022-10-05T03:23:36.677Z,0
2022-10-05T03:24:37.173Z,0
2022-10-05T03:25:37.165Z,0
2022-10-05T03:26:37.146Z,0
2022-10-05T03:27:36.884Z,0
2022-10-05T03:28:37.191Z,0
2022-10-05T03:29:37.113Z,0
2022-10-05T03:30:37.090Z,0
2022-10-05T03:31:37.767Z,0
2022-10-05T03:32:37.362Z,0
2022-10-05T03:49:36.009Z,0
2022-10-05T03:50:35.641Z,0
2022-10-05T03:51:35.889Z,0
2022-10-05T03:52:35.088Z,0
2022-10-05T03:53:35.845Z,0
2022-10-05T03:54:35.564Z,0
2022-10-05T03:55:35.298Z,0
2022-10-05T03:56:35.546Z,0
2022-10-05T03:57:35.260Z,0
2022-10-05T03:58:35.514Z,0
2022-10-05T03:59:39.577Z,0
2022-10-05T04:00:35.475Z,0
2022-10-05T04:01:35.710Z,0
2022-10-05T04:02:35.701Z,0
2022-10-05T04:03:35.179Z,0
2022-10-05T04:04:35.166Z,0
2022-10-05T04:05:35.756Z,0
2022-10-05T04:06:35.383Z,0
2022-10-05T04:07:35.388Z,0
2022-10-05T04:08:35.112Z,0
2022-10-05T04:09:35.081Z,0
2022-10-05T04:10:34.810Z,0
2022-10-05T04:11:35.314Z,0
2022-10-05T04:12:35.556Z,0
2022-10-05T04:13:35.546Z,0
2022-10-05T04:14:35.524Z,0
2022-10-05T04:15:35.194Z,0
2022-10-05T04:16:35.165Z,0
2022-10-05T04:17:35.229Z,0
2022-10-05T04:18:35.217Z,0
2022-10-05T04:19:35.195Z,0
2022-10-05T04:20:34.667Z,0
2022-10-05T04:21:35.634Z,0
2022-10-05T04:22:34.892Z,0
2022-10-05T04:23:35.164Z,0
2022-10-05T04:24:35.392Z,0
2022-10-05T04:25:35.106Z,0
2022-10-05T04:26:34.579Z,0
2022-10-05T04:27:34.819Z,0
2022-10-05T04:28:38.824Z,0
2022-10-05T04:29:35.053Z,0
2022-10-05T04:30:34.779Z,0
2022-10-05T04:31:35.665Z,0
2022-10-05T04:32:35.006Z,0
2022-10-05T04:33:34.998Z,0
2022-10-05T04:34:35.238Z,0
2022-10-05T04:35:34.758Z,0
2022-10-05T04:36:34.450Z,0
2022-10-05T04:37:35.297Z,0
2022-10-05T04:38:34.923Z,0
2022-10-05T04:39:34.395Z,0
2022-10-05T04:40:34.892Z,0
2022-10-05T04:41:34.631Z,0
2022-10-05T04:42:35.127Z,0
2022-10-05T04:43:34.845Z,0
2022-10-05T04:44:34.836Z,0
2022-10-05T04:45:34.817Z,0
2022-10-05T04:46:34.890Z,0
2022-10-05T04:47:35.067Z,0
2022-10-05T04:48:34.522Z,0
2022-10-05T04:49:34.788Z,4
2022-10-05T04:50:34.500Z,4
2022-10-05T04:51:34.995Z,4
2022-10-05T04:52:34.720Z,0
2022-10-05T04:53:35.063Z,4
2022-10-05T04:54:34.431Z,8
2022-10-05T04:55:34.691Z,8
2022-10-05T04:56:34.148Z,8
2022-10-05T04:57:34.397Z,8
2022-10-05T04:58:36.761Z,8
2022-10-05T04:59:34.366Z,12
2022-10-05T05:00:34.633Z,16
2022-10-05T05:01:34.589Z,20
2022-10-05T05:02:34.322Z,20
2022-10-05T05:03:35.052Z,24
2022-10-05T05:04:34.548Z,28
2022-10-05T05:05:34.275Z,32
2022-10-05T05:06:34.522Z,36
2022-10-05T05:07:34.772Z,40
2022-10-05T05:08:34.243Z,48
2022-10-05T05:09:34.832Z,56
2022-10-05T05:10:34.466Z,60
2022-10-05T05:11:34.454Z,68
2022-10-05T05:12:34.179Z,76
2022-10-05T05:13:34.165Z,84
2022-10-05T05:14:33.892Z,92
2022-10-05T05:15:34.656Z,96
2022-10-05T05:16:34.514Z,108
2022-10-05T05:17:34.107Z,120
2022-10-05T05:18:34.350Z,128
2022-10-05T05:19:34.613Z,140
2022-10-05T05:20:34.327Z,152
2022-10-05T05:21:34.057Z,168
2022-10-05T05:22:34.308Z,184
2022-10-05T05:23:34.318Z,200
2022-10-05T05:24:34.531Z,212
2022-10-05T05:25:34.612Z,224
2022-10-05T05:26:40.531Z,240
2022-10-05T05:27:34.227Z,256
2022-10-05T05:28:34.793Z,268
2022-10-05T05:29:34.449Z,284
2022-10-05T05:30:33.930Z,304
2022-10-05T05:31:33.963Z,328
2022-10-05T05:32:34.155Z,340
2022-10-05T05:33:34.146Z,356
2022-10-05T05:34:33.610Z,372
2022-10-05T05:35:34.385Z,388
2022-10-05T05:36:34.354Z,412
2022-10-05T05:37:34.089Z,428
2022-10-05T05:38:34.087Z,444
2022-10-05T05:39:34.311Z,464
2022-10-05T05:40:33.531Z,484
2022-10-05T05:41:34.405Z,504
2022-10-05T05:42:34.014Z,524
2022-10-05T05:43:33.794Z,544
2022-10-05T05:44:38.861Z,564
2022-10-05T05:45:33.985Z,592
2022-10-05T05:47:15.178Z,640
2022-10-05T05:47:33.747Z,648
2022-10-05T05:48:33.421Z,672
2022-10-05T05:49:33.920Z,700
2022-10-05T05:50:34.158Z,724
2022-10-05T05:51:33.628Z,740
2022-10-05T05:52:34.137Z,760
2022-10-05T05:53:33.354Z,776
2022-10-05T05:54:33.343Z,796
2022-10-05T05:55:37.588Z,816
2022-10-05T05:56:33.576Z,836
2022-10-05T05:57:34.200Z,860
2022-10-05T05:58:33.810Z,880
2022-10-05T05:59:33.816Z,888
2022-10-05T06:00:33.789Z,904
2022-10-05T06:01:46.147Z,916
2022-10-05T06:02:34.067Z,928
2022-10-05T06:03:34.131Z,944
2022-10-05T06:04:33.724Z,964
2022-10-05T06:05:33.959Z,976
2022-10-05T06:06:33.171Z,988
2022-10-05T06:07:37.267Z,992
2022-10-05T06:08:33.657Z,1000
2022-10-05T06:09:33.380Z,1012
2022-10-05T06:10:33.511Z,1024
2022-10-05T06:11:33.353Z,1040
2022-10-05T06:12:33.343Z,1056
2022-10-05T06:13:34.550Z,1072
2022-10-05T06:14:34.155Z,1088
2022-10-05T06:15:34.138Z,1104
2022-10-05T06:16:34.543Z,1120
2022-10-05T06:17:34.116Z,1132
2022-10-05T06:18:34.363Z,1148
2022-10-05T06:19:34.081Z,1164
2022-10-05T06:20:33.856Z,1176
2022-10-05T06:21:33.801Z,1188
2022-10-05T06:22:34.106Z,1196
2022-10-05T06:23:34.054Z,1204
2022-10-05T06:24:33.787Z,1228
2022-10-05T06:25:34.020Z,1260
2022-10-05T06:26:33.984Z,1292
2022-10-05T06:27:33.989Z,1312
2022-10-05T06:28:34.616Z,1340
2022-10-05T06:29:34.360Z,1368
2022-10-05T06:30:33.762Z,1388
2022-10-05T06:31:34.240Z,1432
2022-10-05T06:32:34.176Z,1476
2022-10-05T06:33:33.908Z,1504
2022-10-05T06:34:34.136Z,1540
2022-10-05T06:35:33.614Z,1584
2022-10-05T06:36:33.850Z,1628
2022-10-05T06:37:34.100Z,1684
2022-10-05T06:38:34.082Z,1728
2022-10-05T06:39:33.818Z,1772
2022-10-05T06:40:34.154Z,1808
2022-10-05T06:41:34.047Z,1852
2022-10-05T06:42:33.788Z,1892
2022-10-05T06:43:33.816Z,1892
2022-10-05T06:44:33.484Z,1860
2022-10-05T06:45:34.469Z,1872
2022-10-05T06:46:33.726Z,1876
2022-10-05T06:47:33.968Z,1920
2022-10-05T06:48:33.717Z,1956
2022-10-05T06:49:33.426Z,1948
2022-10-05T06:50:33.414Z,1960
2022-10-05T06:51:33.654Z,1972
2022-10-05T06:52:33.390Z,2000
2022-10-05T06:53:33.628Z,2036
2022-10-05T06:54:33.875Z,2068
2022-10-05T06:55:33.858Z,2100
2022-10-05T06:56:33.601Z,2132
2022-10-05T06:57:33.571Z,2140
2022-10-05T06:58:33.319Z,2116
2022-10-05T06:59:33.036Z,2116
2022-10-05T07:00:33.282Z,2172
2022-10-05T07:01:34.335Z,2172
2022-10-05T07:02:33.948Z,2160
2022-10-05T07:03:33.750Z,2140
2022-10-05T07:04:39.494Z,2132
2022-10-05T07:05:33.215Z,2136
2022-10-05T07:06:33.467Z,2148
2022-10-05T07:07:33.255Z,2140
2022-10-05T07:08:33.443Z,2172
2022-10-05T07:09:33.708Z,2196
2022-10-05T07:10:33.421Z,2200
2022-10-05T07:11:33.402Z,2204
2022-10-05T07:12:33.432Z,2224
2022-10-05T07:13:33.115Z,2252
2022-10-05T07:14:33.108Z,2280
2022-10-05T07:15:32.843Z,2296
2022-10-05T07:16:33.541Z,2324
2022-10-05T07:17:33.800Z,2340
2022-10-05T07:18:33.362Z,2360
2022-10-05T07:19:32.781Z,2376
2022-10-05T07:20:33.291Z,2376
2022-10-05T07:21:33.023Z,2368
2022-10-05T07:22:39.110Z,2348
2022-10-05T07:23:33.521Z,2336
2022-10-05T07:24:32.977Z,2328
2022-10-05T07:25:33.490Z,2320
2022-10-05T07:26:32.978Z,2308
2022-10-05T07:27:32.948Z,2296
2022-10-05T07:28:34.210Z,2292
2022-10-05T07:29:33.178Z,2300
2022-10-05T07:30:33.371Z,2296
2022-10-05T07:31:33.272Z,2304
2022-10-05T07:32:33.140Z,2304
2022-10-05T07:33:33.551Z,2292
2022-10-05T07:34:32.599Z,2280
2022-10-05T07:35:33.109Z,2272
2022-10-05T07:36:33.090Z,2228
2022-10-05T07:37:32.821Z,2252
2022-10-05T07:38:32.809Z,2272
2022-10-05T07:40:06.072Z,2280
2022-10-05T07:40:33.301Z,2276
2022-10-05T07:41:32.778Z,2272
2022-10-05T07:42:33.011Z,2268
2022-10-05T07:44:07.771Z,2272
2022-10-05T07:44:33.003Z,2272
2022-10-05T07:45:33.461Z,2272
2022-10-05T07:46:33.266Z,2268
2022-10-05T07:47:32.963Z,2280
2022-10-05T07:48:32.694Z,2284
2022-10-05T07:49:33.332Z,2292
2022-10-05T07:50:33.188Z,2292
2022-10-05T07:51:32.680Z,2304
2022-10-05T07:52:38.869Z,2304
2022-10-05T07:53:33.161Z,2316
2022-10-05T07:54:32.627Z,2348
2022-10-05T07:55:32.883Z,2384
2022-10-05T07:56:32.608Z,2432
2022-10-05T07:57:32.589Z,2476
2022-10-05T07:58:32.585Z,2460
2022-10-05T07:59:32.590Z,2472
2022-10-05T08:00:32.558Z,2448
2022-10-05T08:01:32.837Z,2436
2022-10-05T08:02:33.538Z,2452
2022-10-05T08:03:33.072Z,2500
2022-10-05T08:04:33.027Z,2568
2022-10-05T08:05:33.454Z,2580
2022-10-05T08:06:32.995Z,2620
2022-10-05T08:07:32.538Z,2640
2022-10-05T08:08:32.727Z,2648
2022-10-05T08:09:33.224Z,2712
2022-10-05T08:10:32.968Z,2772
2022-10-05T08:11:32.692Z,2848
2022-10-05T08:12:33.195Z,2932
2022-10-05T08:13:32.925Z,3012
2022-10-05T08:14:33.086Z,3112
2022-10-05T08:15:32.696Z,3216
2022-10-05T08:16:33.117Z,3344
2022-10-05T08:17:33.531Z,3472
2022-10-05T08:18:33.141Z,3588
2022-10-05T08:19:33.118Z,3708
2022-10-05T08:20:33.127Z,3836
2022-10-05T08:21:33.212Z,3964
2022-10-05T08:22:33.136Z,4088
2022-10-05T08:23:32.827Z,4220
2022-10-05T08:24:33.246Z,4392
2022-10-05T08:25:32.728Z,4548
2022-10-05T08:26:33.237Z,4672
2022-10-05T08:27:33.216Z,4784
2022-10-05T08:28:32.957Z,4808
2022-10-05T08:29:32.690Z,5080
2022-10-05T08:30:32.946Z,5228
2022-10-05T08:31:33.479Z,5396
2022-10-05T08:32:32.666Z,5568
2022-10-05T08:33:32.393Z,5744
2022-10-05T08:34:32.671Z,5968
2022-10-05T08:35:32.891Z,6116
2022-10-05T08:36:32.890Z,6220
2022-10-05T08:37:33.231Z,6260
2022-10-05T08:38:32.882Z,6376
2022-10-05T08:39:32.850Z,6424
2022-10-05T08:40:32.841Z,6524
2022-10-05T08:41:32.830Z,6592
2022-10-05T08:42:32.825Z,6680
2022-10-05T08:43:37.955Z,6796
2022-10-05T08:44:32.548Z,6920
2022-10-05T08:45:32.801Z,7024
2022-10-05T08:46:33.373Z,7136
2022-10-05T08:47:32.718Z,7208
2022-10-05T08:48:32.984Z,7288
2022-10-05T08:49:38.765Z,7404
2022-10-05T08:50:32.949Z,7484
2022-10-05T08:51:32.941Z,7556
2022-10-05T08:52:33.223Z,7768
2022-10-05T08:53:33.281Z,7804
2022-10-05T08:54:32.923Z,7796
2022-10-05T08:55:32.911Z,7680
2022-10-05T08:56:35.943Z,7668
2022-10-05T08:57:32.891Z,7672
2022-10-05T08:58:32.368Z,7664
2022-10-05T08:59:32.881Z,7664
2022-10-05T09:00:32.634Z,7688
2022-10-05T09:01:33.397Z,7728
2022-10-05T09:02:33.378Z,7824
2022-10-05T09:03:38.334Z,7964
2022-10-05T09:04:32.841Z,8124
2022-10-05T09:05:32.832Z,8312
2022-10-05T09:06:32.831Z,8472
2022-10-05T09:07:36.116Z,8572
2022-10-05T09:08:33.084Z,8636
2022-10-05T09:09:33.169Z,8692
2022-10-05T09:10:33.056Z,8688
2022-10-05T09:11:32.535Z,8660
2022-10-05T09:12:32.528Z,8612
2022-10-05T09:13:33.055Z,8424
2022-10-05T09:14:33.029Z,8288
2022-10-05T09:15:33.524Z,8140
2022-10-05T09:16:32.895Z,7980
2022-10-05T09:17:35.892Z,7856
2022-10-05T09:18:32.495Z,7664
2022-10-05T09:19:32.752Z,7480
2022-10-05T09:20:32.729Z,7384
2022-10-05T09:21:32.990Z,7344
2022-10-05T09:22:32.720Z,7336
2022-10-05T09:23:32.710Z,7388
2022-10-05T09:24:32.465Z,7512
2022-10-05T09:25:33.061Z,7712
2022-10-05T09:26:32.697Z,7956
2022-10-05T09:27:32.426Z,8176
2022-10-05T09:28:32.768Z,8284
2022-10-05T09:29:32.174Z,8360
2022-10-05T09:30:32.403Z,8416
2022-10-05T09:31:32.881Z,8408
2022-10-05T09:32:32.641Z,8324
2022-10-05T09:33:32.388Z,8100
2022-10-05T09:34:32.931Z,7736
2022-10-05T09:35:32.635Z,7364
2022-10-05T09:36:33.090Z,7080
2022-10-05T09:37:32.877Z,6756
2022-10-05T09:38:32.862Z,6592
2022-10-05T09:39:32.877Z,6420
2022-10-05T09:40:32.865Z,6256
2022-10-05T09:41:32.940Z,6176
2022-10-05T09:42:32.837Z,6136
2022-10-05T09:43:33.087Z,6084
2022-10-05T09:44:32.311Z,6148
2022-10-05T09:45:32.564Z,6184
2022-10-05T09:46:32.749Z,6216
2022-10-05T09:47:32.551Z,6228
2022-10-05T09:48:32.800Z,6240
2022-10-05T09:49:32.280Z,6204
2022-10-05T09:50:32.533Z,6180
2022-10-05T09:51:32.258Z,6132
2022-10-05T09:52:32.509Z,6084
2022-10-05T09:53:32.510Z,5996
2022-10-05T09:54:32.253Z,408
2022-10-05T09:55:32.283Z,908
2022-10-05T09:56:32.101Z,708
2022-10-05T09:57:32.927Z,712
2022-10-05T09:58:32.483Z,704
2022-10-05T09:59:32.725Z,696
2022-10-05T10:00:31.959Z,684
2022-10-05T10:01:41.744Z,636
2022-10-05T10:02:33.485Z,668
2022-10-05T10:03:32.977Z,784
2022-10-05T10:04:32.177Z,908
2022-10-05T10:05:32.159Z,996
2022-10-05T10:06:32.417Z,1024
2022-10-05T10:07:32.417Z,1080
2022-10-05T10:08:32.154Z,1080
2022-10-05T10:09:34.074Z,1100
2022-10-05T10:10:32.395Z,1184
2022-10-05T10:11:31.863Z,1196
2022-10-05T10:12:32.383Z,1204
2022-10-05T10:13:32.736Z,1240
2022-10-05T10:14:32.383Z,1224
2022-10-05T10:15:32.465Z,2412
2022-10-05T10:16:32.524Z,2348
2022-10-05T10:17:32.335Z,2432
2022-10-05T10:18:32.600Z,2588
2022-10-05T10:19:32.071Z,2500
2022-10-05T10:20:32.317Z,1320
2022-10-05T10:21:32.568Z,1576
2022-10-05T10:22:32.306Z,5964
2022-10-05T10:23:32.310Z,5836
2022-10-05T10:24:32.032Z,5700
2022-10-05T10:25:32.279Z,5592
2022-10-05T10:26:32.538Z,5552
2022-10-05T10:27:32.531Z,4404
2022-10-05T10:28:32.239Z,4884
2022-10-05T10:29:32.665Z,4404
2022-10-05T10:30:39.010Z,3912
2022-10-05T10:31:32.655Z,7268
2022-10-05T10:32:31.725Z,7420
2022-10-05T10:33:32.239Z,7416
2022-10-05T10:34:31.967Z,7240
2022-10-05T10:35:32.048Z,4640
2022-10-05T10:36:32.214Z,7276
2022-10-05T10:37:32.206Z,7340
2022-10-05T10:38:32.196Z,7408
2022-10-05T10:39:32.191Z,7528
2022-10-05T10:40:32.200Z,7628
2022-10-05T10:41:32.182Z,7696
2022-10-05T10:42:33.220Z,7748
2022-10-05T10:43:32.266Z,7692
2022-10-05T10:44:32.162Z,7664
2022-10-05T10:45:32.645Z,7556
2022-10-05T10:46:32.413Z,7468
2022-10-05T10:47:32.148Z,7320
2022-10-05T10:48:32.140Z,7188
2022-10-05T10:49:31.874Z,7044
2022-10-05T10:50:32.386Z,6920
2022-10-05T10:51:32.116Z,6836
2022-10-05T10:52:31.849Z,6796
2022-10-05T10:53:32.125Z,6820
2022-10-05T10:54:31.857Z,6724
2022-10-05T10:55:32.127Z,6568
2022-10-05T10:56:31.835Z,6380
2022-10-05T10:57:32.351Z,6236
2022-10-05T10:58:32.604Z,6052
2022-10-05T10:59:36.745Z,5816
2022-10-05T11:00:32.053Z,5720
2022-10-05T11:01:32.681Z,5600
2022-10-05T11:02:32.639Z,5520
2022-10-05T11:03:32.047Z,5432
2022-10-05T11:04:31.777Z,5396
2022-10-05T11:05:32.293Z,5376
2022-10-05T11:06:31.756Z,5288
2022-10-05T11:07:32.014Z,5244
2022-10-05T11:08:31.746Z,5272
2022-10-05T11:09:32.003Z,5268
2022-10-05T11:10:32.255Z,5280
2022-10-05T11:11:32.001Z,5320
2022-10-05T11:12:37.829Z,5368
2022-10-05T11:13:31.975Z,5416
2022-10-05T11:14:31.968Z,5476
2022-10-05T11:15:31.969Z,5568
2022-10-05T11:16:31.980Z,5656
2022-10-05T11:17:32.309Z,5728
2022-10-05T11:18:32.199Z,5800
2022-10-05T11:20:08.081Z,5904
2022-10-05T11:20:31.712Z,5940
2022-10-05T11:21:31.671Z,5976
2022-10-05T11:22:31.659Z,5984
2022-10-05T11:23:35.313Z,5960
2022-10-05T11:24:31.650Z,5948
2022-10-05T11:25:31.651Z,5912
2022-10-05T11:26:31.913Z,5868
2022-10-05T11:27:31.943Z,5796
2022-10-05T11:28:32.466Z,5720
2022-10-05T11:29:31.877Z,5612
2022-10-05T11:30:31.610Z,5456
2022-10-05T11:31:31.993Z,5352
2022-10-05T11:32:31.872Z,5236
2022-10-05T11:33:32.446Z,5152
2022-10-05T11:34:32.101Z,5060
2022-10-05T11:35:32.086Z,4960
2022-10-05T11:36:32.093Z,4848
2022-10-05T11:37:31.931Z,4760
2022-10-05T11:38:31.561Z,4692
2022-10-05T11:39:31.552Z,4620
2022-10-05T11:40:32.518Z,4580
2022-10-05T11:41:32.492Z,4536
2022-10-05T11:42:32.753Z,4540
2022-10-05T11:43:32.490Z,4524
2022-10-05T11:44:32.739Z,4544
2022-10-05T11:45:32.725Z,4572
2022-10-05T11:46:33.102Z,4572
2022-10-05T11:47:32.460Z,4584
2022-10-05T11:48:32.787Z,4628
2022-10-05T11:49:33.075Z,4664
2022-10-05T11:50:32.441Z,4692
2022-10-05T11:51:35.828Z,4700
2022-10-05T11:52:32.943Z,4716
2022-10-05T11:53:32.675Z,4732
2022-10-05T11:54:58.968Z,4776
2022-10-05T11:55:32.409Z,4788
2022-10-05T11:56:32.211Z,4804
2022-10-05T11:57:32.654Z,4784
2022-10-05T11:58:32.386Z,4784
2022-10-05T11:59:32.655Z,4808
2022-10-05T12:00:32.388Z,4752
2022-10-05T12:01:32.388Z,4832
2022-10-05T12:02:33.487Z,4836
2022-10-05T12:03:33.822Z,4860
2022-10-05T12:04:32.987Z,4884
2022-10-05T12:05:33.320Z,4924
2022-10-05T12:06:33.215Z,4940
2022-10-05T12:07:32.947Z,4932
2022-10-05T12:08:32.440Z,4920
2022-10-05T12:09:32.686Z,4920
2022-10-05T12:10:33.191Z,4912
2022-10-05T12:11:32.676Z,4904
2022-10-05T12:12:32.928Z,4860
2022-10-05T12:13:32.910Z,4848
2022-10-05T12:14:32.654Z,4824
2022-10-05T12:15:32.899Z,4796
2022-10-05T12:16:33.020Z,4768
2022-10-05T12:17:33.159Z,4748
2022-10-05T12:18:33.144Z,4732
2022-10-05T12:19:32.884Z,4724
2022-10-05T12:20:32.900Z,4704
2022-10-05T12:21:33.238Z,4700
2022-10-05T12:22:32.631Z,4680
2022-10-05T12:23:33.148Z,4676
2022-10-05T12:24:33.799Z,4656
2022-10-05T12:25:33.715Z,4632
2022-10-05T12:26:33.186Z,4616
2022-10-05T12:27:33.442Z,4596
2022-10-05T12:28:33.754Z,4564
2022-10-05T12:29:33.467Z,4532
2022-10-05T12:30:33.188Z,4492
2022-10-05T12:31:33.863Z,4460
2022-10-05T12:32:32.904Z,4428
2022-10-05T12:33:33.405Z,4388
2022-10-05T12:34:33.136Z,4352
2022-10-05T12:35:54.532Z,4296
2022-10-05T12:37:08.531Z,4220
2022-10-05T12:37:33.529Z,4196
2022-10-05T12:38:33.641Z,4128
2022-10-05T12:39:33.122Z,4080
2022-10-05T12:40:33.099Z,4052
2022-10-05T12:41:34.314Z,4020
2022-10-05T12:42:35.167Z,3932
2022-10-05T12:43:33.091Z,3912
2022-10-05T12:44:33.339Z,3884
2022-10-05T12:45:33.593Z,3812
2022-10-05T12:46:34.251Z,3748
2022-10-05T12:47:34.246Z,3712
2022-10-05T12:48:34.250Z,3668
2022-10-05T12:49:33.987Z,3620
2022-10-05T12:50:33.979Z,3560
2022-10-05T12:51:34.037Z,3516
2022-10-05T12:52:34.562Z,3484
2022-10-05T12:53:34.520Z,3448
2022-10-05T12:54:34.464Z,3404
2022-10-05T12:55:33.941Z,3364
2022-10-05T12:56:34.201Z,3336
2022-10-05T12:57:34.199Z,3304
2022-10-05T12:58:34.179Z,3264
2022-10-05T12:59:33.917Z,3232
2022-10-05T13:00:34.031Z,3180
2022-10-05T13:01:33.658Z,3136
2022-10-05T13:02:34.154Z,3092
2022-10-05T13:03:33.645Z,3052
2022-10-05T13:04:34.149Z,3028
2022-10-05T13:05:33.911Z,3000
2022-10-05T13:06:33.878Z,2964
2022-10-05T13:07:34.133Z,2940
2022-10-05T13:08:35.445Z,2920
2022-10-05T13:09:35.408Z,2900
2022-10-05T13:10:35.122Z,2880
2022-10-05T13:11:35.092Z,2852
2022-10-05T13:12:34.848Z,2836
2022-10-05T13:13:35.082Z,2816
2022-10-05T13:14:34.825Z,2796
2022-10-05T13:15:34.806Z,2768
2022-10-05T13:16:35.144Z,2748
2022-10-05T13:17:34.802Z,2728
2022-10-05T13:18:35.323Z,2720
2022-10-05T13:19:34.787Z,2712
2022-10-05T13:20:34.785Z,2684
2022-10-05T13:21:35.027Z,2652
2022-10-05T13:22:34.775Z,2632
2022-10-05T13:23:35.020Z,2612
2022-10-05T13:24:35.084Z,2592
2022-10-05T13:25:35.328Z,2568
2022-10-05T13:26:35.008Z,2556
2022-10-05T13:27:34.482Z,2536
2022-10-05T13:28:35.368Z,2516
2022-10-05T13:29:34.474Z,2492
2022-10-05T13:30:35.065Z,2464
2022-10-05T13:31:35.292Z,2444
2022-10-05T13:32:34.964Z,2416
2022-10-05T13:33:35.228Z,2388
2022-10-05T13:34:34.966Z,2352
2022-10-05T13:35:34.685Z,2320
2022-10-05T13:36:34.945Z,2308
2022-10-05T13:37:34.933Z,2300
2022-10-05T13:38:35.188Z,2296
2022-10-05T13:39:34.933Z,2296
2022-10-05T13:40:35.248Z,2312
2022-10-05T13:41:34.935Z,2312
2022-10-05T13:42:34.908Z,2308
2022-10-05T13:43:35.142Z,2300
2022-10-05T13:44:34.386Z,2292
2022-10-05T13:45:34.641Z,2276
2022-10-05T13:46:34.903Z,2276
2022-10-05T13:47:34.877Z,2256
2022-10-05T13:48:35.125Z,2244
2022-10-05T13:49:34.638Z,2248
2022-10-05T13:50:38.384Z,2256
2022-10-05T13:51:35.109Z,2260
2022-10-05T13:52:35.102Z,2260
2022-10-05T13:53:34.840Z,2268
2022-10-05T13:54:34.828Z,2276
2022-10-05T13:55:35.089Z,2280
2022-10-05T13:56:34.972Z,2292
2022-10-05T13:57:35.094Z,2296
2022-10-05T13:58:34.817Z,2300
2022-10-05T13:59:34.540Z,2300
2022-10-05T14:00:34.801Z,2312
2022-10-05T14:01:34.781Z,2320
2022-10-05T14:02:34.705Z,2324
2022-10-05T14:03:35.210Z,2344
2022-10-05T14:04:34.767Z,2360
2022-10-05T14:05:34.776Z,2364
2022-10-05T14:06:34.752Z,2368